Current Weather

Lewis University

Chicago/Romeoville, Illinois (KLOT)

Report from: Sunday, July 14, 2024 4:40 AM CDT
Current time: Sunday, July 14, 2024 5:03 AM CDT

Nearby weather – Weather history – Daily summaries
Weather forecast

Temperature20.0°C (68.0°F)
Dew point20.0°C (68.0°F)
Winds 8 kts (4.1 m/s, 9.2 mph) South (170°)
Visibility10 mi. (16.1 km)
Clouds Sky clear
Altimeter29.99 in.Hg (1016 mB)
Relative humidity100 %
Density altitude823 ft. (251 m)
Remarks Fully automated report
Automated weather observing station with precipitation discriminator
Flight conditions Visual Meteorological Conditions
Raw dataKLOT 140940Z AUTO 17008KT 10SM CLR 20/20 A2999 RMK AO2
An error has occurred. This application may no longer respond until reloaded. Reload 🗙